Time;durP1;ratioP1;P1;durP2;ratioP2;P2;SDS_P1;SDS_P2;PMS_P1;PMS_P2;Temp;Humidity;BMP_temperature;BMP_pressure;BME280_temperature;BME280_humidity;BME280_pressure;Samples;Min_cycle;Max_cycle;Signal;HPM_P1;HPM_P2
2022/08/25 00:00:56;;;;;;;4.82;1.60;;;25.30;60.00;;;;;;5033817;28;20033;-34
2022/08/25 00:03:21;;;;;;;3.25;1.75;;;25.30;59.90;;;;;;5033756;28;20070;-35
2022/08/25 00:05:47;;;;;;;3.10;1.55;;;25.30;59.70;;;;;;5033982;28;20018;-34
2022/08/25 00:08:13;;;;;;;1.70;1.60;;;25.20;59.50;;;;;;5032861;28;20045;-35
2022/08/25 00:10:40;;;;;;;2.65;1.50;;;25.30;59.50;;;;;;5031518;28;20044;-34
2022/08/25 00:13:06;;;;;;;2.28;1.50;;;25.30;59.30;;;;;;5033271;28;20041;-36
2022/08/25 00:15:31;;;;;;;1.90;1.70;;;25.30;59.30;;;;;;5032172;28;20530;-34
2022/08/25 00:17:58;;;;;;;1.80;1.70;;;25.20;59.10;;;;;;5032610;28;20033;-35
2022/08/25 00:20:25;;;;;;;1.65;1.52;;;25.20;59.00;;;;;;5033106;28;20524;-35
2022/08/25 00:22:51;;;;;;;2.45;1.52;;;25.20;59.00;;;;;;5032677;28;20021;-36
2022/08/25 00:25:17;;;;;;;3.72;1.85;;;25.20;58.90;;;;;;5032642;28;20036;-37
2022/08/25 00:27:44;;;;;;;2.22;1.50;;;25.20;58.80;;;;;;5032453;28;20361;-35
2022/08/25 00:30:13;;;;;;;2.97;1.63;;;25.10;58.70;;;;;;5032748;28;20044;-36
2022/08/25 00:32:39;;;;;;;3.25;1.65;;;25.10;58.70;;;;;;5031411;28;20436;-35
2022/08/25 00:35:05;;;;;;;3.47;1.50;;;25.10;58.70;;;;;;5032718;28;20049;-35
2022/08/25 00:37:30;;;;;;;2.50;1.45;;;25.10;58.70;;;;;;5032408;28;20022;-35
2022/08/25 00:39:57;;;;;;;1.55;1.45;;;25.10;58.70;;;;;;5032655;28;20094;-41
2022/08/25 00:42:23;;;;;;;2.67;1.50;;;25.10;58.70;;;;;;5032368;28;20083;-37
2022/08/25 00:44:49;;;;;;;2.35;1.48;;;25.00;58.60;;;;;;5032427;28;20017;-35
2022/08/25 00:47:15;;;;;;;2.95;1.42;;;25.00;58.60;;;;;;5032200;28;20031;-40
2022/08/25 00:49:45;;;;;;;1.67;1.58;;;25.00;58.60;;;;;;5032332;28;20025;-35
2022/08/25 00:52:15;;;;;;;2.70;1.70;;;24.90;58.50;;;;;;5030798;28;20025;-35
2022/08/25 00:54:51;;;;;;;3.40;1.60;;;25.00;58.60;;;;;;5032146;28;20311;-35
2022/08/25 00:57:25;;;;;;;2.88;1.70;;;24.90;58.50;;;;;;5032038;28;20025;-35
2022/08/25 00:59:51;;;;;;;1.70;1.60;;;24.90;58.50;;;;;;5032489;28;20025;-34
2022/08/25 01:02:16;;;;;;;2.65;1.60;;;24.80;58.50;;;;;;5031999;28;20032;-35
2022/08/25 01:04:44;;;;;;;3.10;1.60;;;24.80;58.50;;;;;;5032138;28;20033;-35
2022/08/25 01:07:11;;;;;;;2.28;1.70;;;24.80;58.50;;;;;;4995195;28;1061847;-36
2022/08/25 01:09:37;;;;;;;2.92;1.60;;;24.80;58.50;;;;;;5031258;28;20180;-36
2022/08/25 01:12:03;;;;;;;3.90;1.58;;;24.70;58.50;;;;;;5032667;28;20034;-36
2022/08/25 01:14:30;;;;;;;4.35;1.65;;;24.70;58.50;;;;;;5032518;28;20469;-34
2022/08/25 01:16:57;;;;;;;2.38;1.70;;;24.70;58.50;;;;;;5031396;28;20030;-35
2022/08/25 01:19:24;;;;;;;1.80;1.60;;;24.70;58.50;;;;;;5032521;28;20029;-50
2022/08/25 01:21:52;;;;;;;3.30;1.48;;;24.70;58.50;;;;;;5031266;28;20025;-37
2022/08/25 01:24:40;;;;;;;1.92;1.70;;;24.70;58.50;;;;;;5031289;28;20422;-36
2022/08/25 01:27:06;;;;;;;1.98;1.52;;;24.60;58.40;;;;;;5031747;28;20551;-38
2022/08/25 01:29:32;;;;;;;3.60;1.88;;;24.60;58.40;;;;;;5032461;28;20045;-35
2022/08/25 01:32:00;;;;;;;2.90;1.63;;;24.50;58.40;;;;;;5031184;28;20033;-37
2022/08/25 01:34:29;;;;;;;3.42;1.70;;;24.50;58.40;;;;;;5032435;28;20057;-34
2022/08/25 01:36:56;;;;;;;2.10;1.67;;;24.50;58.40;;;;;;5032451;28;20388;-36
2022/08/25 01:39:22;;;;;;;2.42;1.63;;;24.50;58.40;;;;;;5032959;28;20033;-36
2022/08/25 01:42:08;;;;;;;2.90;1.65;;;24.50;58.30;;;;;;5032254;28;20040;-35
2022/08/25 01:44:36;;;;;;;1.85;1.63;;;24.40;58.30;;;;;;5032347;28;20041;-37
2022/08/25 01:47:03;;;;;;;1.98;1.63;;;24.40;58.30;;;;;;5032283;28;20099;-35
2022/08/25 01:49:29;;;;;;;1.60;1.48;;;24.40;58.30;;;;;;5032706;28;20042;-36
2022/08/25 01:52:04;;;;;;;2.33;1.80;;;24.30;58.20;;;;;;5032428;28;20461;-36
2022/08/25 01:54:30;;;;;;;3.28;1.73;;;24.30;58.10;;;;;;5032392;28;20033;-36
2022/08/25 01:56:57;;;;;;;2.35;1.70;;;24.40;58.10;;;;;;5032591;28;20056;-35
2022/08/25 01:59:24;;;;;;;3.45;1.55;;;24.40;58.10;;;;;;5032473;28;20037;-36
2022/08/25 02:01:50;;;;;;;1.95;1.75;;;24.40;58.00;;;;;;5032268;28;20076;-36
2022/08/25 02:04:16;;;;;;;1.40;1.30;;;24.40;57.90;;;;;;5032532;28;20108;-35
2022/08/25 02:06:41;;;;;;;2.20;1.70;;;24.40;57.90;;;;;;5031989;28;20155;-36
2022/08/25 02:09:10;;;;;;;1.80;1.70;;;24.40;57.70;;;;;;5032272;28;20355;-35
2022/08/25 02:11:38;;;;;;;2.20;1.88;;;24.40;57.60;;;;;;5032092;28;20126;-35
2022/08/25 02:14:04;;;;;;;2.10;1.90;;;24.40;57.60;;;;;;5032435;28;20028;-36
2022/08/25 02:16:34;;;;;;;2.30;1.80;;;24.40;57.50;;;;;;5032459;28;20033;-46
2022/08/25 02:19:00;;;;;;;2.40;1.48;;;24.40;57.40;;;;;;5032637;28;20388;-36
2022/08/25 02:21:27;;;;;;;2.35;1.77;;;24.40;57.40;;;;;;5032313;28;20040;-34
2022/08/25 02:23:52;;;;;;;3.58;1.70;;;24.40;57.30;;;;;;5032179;28;20037;-36
2022/08/25 02:26:19;;;;;;;2.08;1.70;;;24.40;57.20;;;;;;5032404;28;20034;-35
2022/08/25 02:28:46;;;;;;;2.53;1.80;;;24.40;57.20;;;;;;5032019;28;20072;-35
2022/08/25 02:31:13;;;;;;;1.92;1.58;;;24.40;57.00;;;;;;5031988;28;20506;-37
2022/08/25 02:33:38;;;;;;;3.50;1.50;;;24.40;56.90;;;;;;5032193;28;20029;-36
2022/08/25 02:36:04;;;;;;;2.75;1.50;;;24.40;56.80;;;;;;5032799;28;20029;-36
2022/08/25 02:38:30;;;;;;;1.65;1.42;;;24.50;56.70;;;;;;5033463;28;20041;-35
2022/08/25 02:40:57;;;;;;;2.15;1.50;;;24.50;56.50;;;;;;5035383;28;20087;-35
2022/08/25 02:43:24;;;;;;;2.13;1.70;;;24.50;56.40;;;;;;5035333;28;20112;-35
2022/08/25 02:45:51;;;;;;;2.08;1.63;;;24.60;56.20;;;;;;5035282;28;20087;-35
2022/08/25 02:48:16;;;;;;;2.00;1.50;;;24.60;56.70;;;;;;5035168;28;20108;-35
2022/08/25 02:50:47;;;;;;;2.70;1.60;;;24.60;56.00;;;;;;5035163;28;20029;-36
2022/08/25 02:53:12;;;;;;;3.15;1.55;;;24.60;55.90;;;;;;5035452;28;20204;-36
2022/08/25 02:55:39;;;;;;;2.55;1.60;;;24.60;56.50;;;;;;5035027;28;20080;-36
2022/08/25 02:58:04;;;;;;;1.80;1.40;;;24.50;55.70;;;;;;5035032;28;20030;-36
2022/08/25 03:00:30;;;;;;;2.05;1.50;;;24.50;55.70;;;;;;5035234;28;20033;-35
2022/08/25 03:02:56;;;;;;;2.60;1.60;;;24.50;55.70;;;;;;5035293;28;20127;-35
2022/08/25 03:05:22;;;;;;;2.20;1.63;;;24.50;55.70;;;;;;5035297;28;20087;-36
2022/08/25 03:07:47;;;;;;;2.92;1.58;;;24.50;55.70;;;;;;5034773;28;20121;-35
2022/08/25 03:10:16;;;;;;;2.40;1.70;;;24.40;55.70;;;;;;5035032;28;20060;-36
2022/08/25 03:12:42;;;;;;;2.22;1.83;;;24.40;55.80;;;;;;5035025;28;20025;-35
2022/08/25 03:15:09;;;;;;;2.80;1.88;;;24.30;55.80;;;;;;5034770;28;20025;-45
2022/08/25 03:17:35;;;;;;;2.55;1.88;;;24.30;55.90;;;;;;5034767;28;20087;-37
2022/08/25 03:20:02;;;;;;;2.65;1.58;;;24.20;55.90;;;;;;5034802;28;20025;-35
2022/08/25 03:22:28;;;;;;;3.75;1.98;;;24.20;56.00;;;;;;5034587;28;20040;-35
2022/08/25 03:26:52;;;;;;;3.03;1.50;;;24.20;56.00;;;;;;5034525;28;20030;-35
2022/08/25 03:27:39;;;;;;;3.25;1.88;;;24.10;56.00;;;;;;5034343;28;20037;-35
2022/08/25 03:30:06;;;;;;;2.03;1.70;;;24.00;56.10;;;;;;5034499;28;20108;-36
2022/08/25 03:32:31;;;;;;;2.35;1.90;;;24.00;56.20;;;;;;5034591;28;20063;-36
2022/08/25 03:34:57;;;;;;;2.20;1.77;;;24.00;56.20;;;;;;5034777;28;20432;-37
2022/08/25 03:37:22;;;;;;;2.35;1.77;;;23.90;56.20;;;;;;5034625;28;20021;-36
2022/08/25 03:39:48;;;;;;;1.80;1.60;;;23.90;56.30;;;;;;5034177;28;20033;-36
2022/08/25 03:42:14;;;;;;;2.47;1.80;;;23.90;56.40;;;;;;5034145;28;20108;-36
2022/08/25 03:44:39;;;;;;;2.03;1.83;;;23.80;56.40;;;;;;5033990;28;20038;-36
2022/08/25 03:47:05;;;;;;;2.42;1.63;;;23.80;56.50;;;;;;5034009;28;20489;-35
2022/08/25 03:49:31;;;;;;;2.70;1.80;;;23.80;56.50;;;;;;5033453;28;20025;-35
2022/08/25 03:51:57;;;;;;;4.53;1.83;;;23.80;56.60;;;;;;5034110;28;20036;-36
2022/08/25 03:54:24;;;;;;;3.45;1.90;;;23.80;56.60;;;;;;5034015;28;20032;-36
2022/08/25 03:56:50;;;;;;;2.78;1.85;;;23.70;56.60;;;;;;5033931;28;20029;-37
2022/08/25 03:59:16;;;;;;;2.65;1.95;;;23.70;56.70;;;;;;5034423;28;20053;-36
2022/08/25 04:01:44;;;;;;;2.97;1.92;;;23.70;56.70;;;;;;5034018;28;20052;-39
2022/08/25 04:04:11;;;;;;;2.60;1.98;;;23.70;56.80;;;;;;5034075;28;20456;-36
2022/08/25 04:06:38;;;;;;;3.03;1.63;;;23.60;56.80;;;;;;5033594;28;20028;-35
2022/08/25 04:09:05;;;;;;;2.25;1.92;;;23.60;56.90;;;;;;5033559;28;20045;-35
2022/08/25 04:11:30;;;;;;;2.08;1.88;;;23.50;56.90;;;;;;5034099;28;20033;-36
2022/08/25 04:13:59;;;;;;;3.08;2.00;;;23.60;57.10;;;;;;5033588;28;20048;-36
2022/08/25 04:16:29;;;;;;;2.28;1.80;;;23.50;57.10;;;;;;5033427;28;20091;-35
2022/08/25 04:18:55;;;;;;;3.33;2.00;;;23.50;57.20;;;;;;5033475;28;20068;-35
2022/08/25 04:21:22;;;;;;;1.95;1.85;;;23.50;57.30;;;;;;5033794;28;20025;-36
2022/08/25 04:23:48;;;;;;;2.17;1.98;;;23.40;57.30;;;;;;5034211;28;20384;-35
2022/08/25 04:26:18;;;;;;;3.92;2.10;;;23.40;57.50;;;;;;5033458;28;20040;-36
2022/08/25 04:28:43;;;;;;;4.13;2.10;;;23.30;57.50;;;;;;5033488;28;20120;-36
2022/08/25 04:31:11;;;;;;;4.45;2.10;;;23.30;57.60;;;;;;5033278;28;20056;-41
2022/08/25 04:33:37;;;;;;;3.83;2.05;;;23.30;57.80;;;;;;5033449;28;20087;-36
2022/08/25 04:36:05;;;;;;;2.10;1.90;;;23.20;57.80;;;;;;5033244;28;20021;-35
2022/08/25 04:38:31;;;;;;;1.92;1.77;;;23.20;57.90;;;;;;5033069;28;20057;-35
2022/08/25 04:40:58;;;;;;;2.63;2.00;;;23.10;57.90;;;;;;5033170;28;20104;-35
2022/08/25 04:43:23;;;;;;;3.05;1.95;;;23.10;58.00;;;;;;5033080;28;20465;-35
2022/08/25 04:45:49;;;;;;;2.67;1.95;;;23.10;58.00;;;;;;5033025;28;20037;-36
2022/08/25 04:48:14;;;;;;;4.50;2.00;;;23.10;58.10;;;;;;5033145;28;20033;-36
2022/08/25 04:50:40;;;;;;;2.53;1.83;;;23.00;58.10;;;;;;5032873;28;20038;-36
2022/08/25 04:53:06;;;;;;;2.30;1.77;;;23.00;58.20;;;;;;5033027;28;20032;-35
2022/08/25 04:55:31;;;;;;;2.33;2.00;;;23.00;58.20;;;;;;5032818;28;20025;-35
2022/08/25 04:57:57;;;;;;;2.92;2.00;;;23.00;58.30;;;;;;5032874;28;20031;-37
2022/08/25 05:00:23;;;;;;;2.28;1.90;;;23.00;58.40;;;;;;5032889;28;20025;-35
2022/08/25 05:02:49;;;;;;;4.07;2.05;;;23.00;58.40;;;;;;5032549;28;20037;-44
2022/08/25 05:05:15;;;;;;;2.00;1.88;;;23.00;58.40;;;;;;5032742;28;20480;-35
2022/08/25 05:07:40;;;;;;;2.13;1.92;;;23.00;58.50;;;;;;5032644;28;20099;-36
2022/08/25 05:10:06;;;;;;;2.67;2.10;;;23.00;58.40;;;;;;5032698;28;20038;-52
2022/08/25 05:12:33;;;;;;;3.00;1.80;;;23.00;58.50;;;;;;5032801;28;20074;-35
2022/08/25 05:15:48;;;;;;;2.47;1.90;;;22.90;58.40;;;;;;5032605;28;20065;-35
2022/08/25 05:17:44;;;;;;;3.05;1.95;;;23.00;58.50;;;;;;5032489;28;20378;-39
2022/08/25 05:20:10;;;;;;;3.15;2.00;;;22.90;58.50;;;;;;5032330;28;20033;-36
2022/08/25 05:22:35;;;;;;;3.97;1.88;;;22.90;58.50;;;;;;5032185;28;20030;-35
2022/08/25 05:25:01;;;;;;;2.40;1.95;;;22.90;58.50;;;;;;5032444;28;20033;-36
2022/08/25 05:27:27;;;;;;;2.20;1.92;;;22.90;58.50;;;;;;5030703;28;20515;-35
2022/08/25 05:29:52;;;;;;;3.03;2.15;;;22.90;58.60;;;;;;5032158;28;20026;-35
2022/08/25 05:32:18;;;;;;;3.22;1.88;;;23.00;58.60;;;;;;5032636;28;20357;-47
2022/08/25 05:34:44;;;;;;;2.72;1.90;;;23.00;58.60;;;;;;5032455;28;20041;-37
2022/08/25 05:37:09;;;;;;;4.07;2.25;;;23.00;58.60;;;;;;5032191;28;20098;-36
2022/08/25 05:39:35;;;;;;;3.88;2.22;;;23.00;58.60;;;;;;5031953;28;20481;-36
2022/08/25 05:42:00;;;;;;;4.85;2.20;;;22.90;58.50;;;;;;5032190;28;20083;-36
2022/08/25 05:44:26;;;;;;;4.10;2.00;;;22.90;58.50;;;;;;5032441;28;20490;-35
2022/08/25 05:46:51;;;;;;;2.55;1.98;;;22.90;58.50;;;;;;5032124;28;20048;-36
2022/08/25 05:49:17;;;;;;;2.65;2.00;;;22.90;58.50;;;;;;5032039;28;20029;-35
2022/08/25 05:51:43;;;;;;;3.17;2.22;;;23.00;58.50;;;;;;5032257;28;20026;-35
2022/08/25 05:54:08;;;;;;;2.42;2.10;;;23.00;58.50;;;;;;5030760;28;20435;-37
2022/08/25 05:56:35;;;;;;;2.63;2.00;;;23.00;58.40;;;;;;5032291;28;20029;-35
2022/08/25 05:59:01;;;;;;;4.85;2.20;;;23.00;58.40;;;;;;5032163;28;20481;-35
2022/08/25 06:04:14;;;;;;;3.20;2.28;;;23.10;58.40;;;;;;5032245;28;20155;-35
2022/08/25 06:06:40;;;;;;;4.35;2.22;;;23.10;58.30;;;;;;5031983;28;20465;-35
2022/08/25 06:09:07;;;;;;;4.00;2.17;;;23.10;58.30;;;;;;5031995;28;20114;-35
2022/08/25 06:11:33;;;;;;;5.00;1.85;;;23.10;58.20;;;;;;5031840;28;20025;-35
2022/08/25 06:13:58;;;;;;;3.60;2.10;;;23.20;58.20;;;;;;5034191;28;20029;-35
2022/08/25 06:16:24;;;;;;;2.58;1.98;;;23.20;58.10;;;;;;5036019;28;20029;-36
2022/08/25 06:18:49;;;;;;;4.65;2.03;;;23.20;58.00;;;;;;5035729;28;20104;-35
2022/08/25 06:21:17;;;;;;;2.42;2.00;;;23.30;58.00;;;;;;5035834;28;20033;-35
2022/08/25 06:23:43;;;;;;;2.75;2.20;;;23.30;58.00;;;;;;5035622;28;20037;-35
2022/08/25 06:26:12;;;;;;;2.22;1.90;;;23.30;57.90;;;;;;5035800;28;20033;-36
2022/08/25 06:28:38;;;;;;;2.00;1.80;;;23.30;57.80;;;;;;5033716;28;20030;-36
2022/08/25 06:31:04;;;;;;;3.78;1.77;;;23.40;57.70;;;;;;5035489;28;20370;-35
2022/08/25 06:33:30;;;;;;;4.65;2.00;;;23.40;57.70;;;;;;5035421;28;20029;-35
2022/08/25 06:35:56;;;;;;;4.18;2.17;;;23.40;57.60;;;;;;5034156;28;20025;-35
2022/08/25 06:38:22;;;;;;;2.33;1.90;;;23.50;57.50;;;;;;5035381;28;20041;-38
2022/08/25 06:40:49;;;;;;;4.15;2.03;;;23.50;57.50;;;;;;5035331;28;20418;-35
2022/08/25 06:43:15;;;;;;;2.90;2.00;;;23.60;57.50;;;;;;5035616;28;20064;-36
2022/08/25 06:45:42;;;;;;;3.83;1.90;;;23.60;57.30;;;;;;5035564;28;20404;-36
2022/08/25 06:48:09;;;;;;;3.13;1.88;;;23.70;57.20;;;;;;5035342;28;20041;-36
2022/08/25 06:50:36;;;;;;;2.45;2.00;;;23.70;57.10;;;;;;5035413;28;20104;-36
2022/08/25 06:53:02;;;;;;;2.13;1.90;;;23.80;57.00;;;;;;5035366;28;20477;-35
2022/08/25 06:55:28;;;;;;;4.15;2.00;;;23.80;56.90;;;;;;5035120;28;20102;-37
2022/08/25 06:57:53;;;;;;;4.05;2.00;;;23.90;56.90;;;;;;5035201;28;20350;-35
2022/08/25 07:00:19;;;;;;;2.17;1.83;;;23.90;56.80;;;;;;5034949;28;20120;-45
2022/08/25 07:02:46;;;;;;;3.25;1.83;;;24.00;56.80;;;;;;5035222;28;20038;-35
2022/08/25 07:05:11;;;;;;;2.67;2.00;;;24.00;56.70;;;;;;5035133;28;20025;-35
2022/08/25 07:07:37;;;;;;;3.70;1.92;;;24.00;56.50;;;;;;5034599;28;20048;-35
2022/08/25 07:10:04;;;;;;;4.28;2.20;;;24.10;56.50;;;;;;5034741;28;20108;-35
2022/08/25 07:12:30;;;;;;;2.88;1.90;;;24.10;56.40;;;;;;5034583;28;20484;-34
2022/08/25 07:14:55;;;;;;;3.47;1.80;;;24.20;56.40;;;;;;5034655;28;20023;-35
2022/08/25 07:17:22;;;;;;;2.60;2.00;;;24.20;56.30;;;;;;5034706;28;20037;-35
2022/08/25 07:19:48;;;;;;;2.67;2.10;;;24.30;56.20;;;;;;5034712;28;20120;-36
2022/08/25 07:22:14;;;;;;;2.97;2.00;;;24.40;56.20;;;;;;5034480;28;20029;-46
2022/08/25 07:24:40;;;;;;;4.25;2.10;;;24.40;56.10;;;;;;5034356;28;20418;-35
2022/08/25 07:27:05;;;;;;;3.38;1.73;;;24.40;56.00;;;;;;5034391;28;20083;-35
2022/08/25 07:29:32;;;;;;;3.67;1.90;;;24.50;55.90;;;;;;5034151;28;20044;-35
2022/08/25 07:31:59;;;;;;;3.75;1.88;;;24.50;55.80;;;;;;5034256;28;20079;-34
2022/08/25 07:37:09;;;;;;;2.72;2.00;;;24.70;55.70;;;;;;5034281;28;20120;-39
2022/08/25 07:39:35;;;;;;;2.20;1.95;;;24.70;55.60;;;;;;5034032;28;20034;-33
2022/08/25 07:42:00;;;;;;;2.00;1.80;;;24.80;55.50;;;;;;5034274;28;20239;-34
2022/08/25 07:44:27;;;;;;;2.13;1.92;;;24.90;55.50;;;;;;5032476;28;20082;-34
2022/08/25 07:46:53;;;;;;;4.20;1.88;;;25.00;55.40;;;;;;5033616;28;20022;-39
2022/08/25 07:49:21;;;;;;;2.28;1.85;;;25.10;55.30;;;;;;5033662;28;20056;-34
2022/08/25 07:51:47;;;;;;;5.25;1.88;;;25.10;55.10;;;;;;5033739;28;20025;-34
2022/08/25 07:54:13;;;;;;;2.80;1.75;;;25.20;55.00;;;;;;5033649;28;20032;-33
2022/08/25 07:56:41;;;;;;;3.22;1.63;;;25.20;54.90;;;;;;5033726;28;20041;-33
2022/08/25 07:59:07;;;;;;;3.38;1.90;;;25.30;54.80;;;;;;5033792;28;20485;-34
2022/08/25 08:01:33;;;;;;;4.22;1.92;;;25.40;54.70;;;;;;5032016;28;20036;-34
2022/08/25 08:03:59;;;;;;;4.43;1.75;;;25.50;54.70;;;;;;5033504;28;20440;-35
2022/08/25 08:06:24;;;;;;;2.30;1.77;;;25.60;54.50;;;;;;5033553;28;20025;-42
2022/08/25 08:08:52;;;;;;;4.80;2.00;;;25.60;54.40;;;;;;5033315;28;20041;-35
2022/08/25 08:11:27;;;;;;;4.28;1.98;;;25.70;54.30;;;;;;5033392;28;20447;-34
2022/08/25 08:13:54;;;;;;;1.95;1.67;;;25.70;54.20;;;;;;5033470;28;20037;-34
2022/08/25 08:16:23;;;;;;;2.67;2.10;;;25.80;54.20;;;;;;5033309;28;20033;-34
2022/08/25 08:18:49;;;;;;;2.70;1.88;;;25.80;54.10;;;;;;5033578;28;20033;-34
2022/08/25 08:21:21;;;;;;;3.50;1.90;;;25.90;54.00;;;;;;5033548;28;20500;-34
2022/08/25 08:23:48;;;;;;;2.58;2.05;;;25.90;54.00;;;;;;5033120;28;20543;-34
2022/08/25 08:26:14;;;;;;;2.22;1.90;;;26.00;54.00;;;;;;5033516;28;20029;-34
2022/08/25 08:28:39;;;;;;;3.05;2.10;;;26.00;53.80;;;;;;5033114;28;20087;-34
2022/08/25 08:31:05;;;;;;;4.10;1.88;;;26.10;53.80;;;;;;5033211;28;20468;-34
2022/08/25 08:33:32;;;;;;;4.28;2.00;;;26.10;53.70;;;;;;5033367;28;20424;-40
2022/08/25 08:36:06;;;;;;;2.85;2.03;;;26.20;53.70;;;;;;5032976;28;20036;-35
2022/08/25 08:38:34;;;;;;;2.97;2.30;;;26.30;53.60;;;;;;5032925;28;20026;-34
2022/08/25 08:44:43;;;;;;;3.65;2.13;;;26.30;53.40;;;;;;5032835;28;20572;-34
2022/08/25 08:47:17;;;;;;;2.80;1.85;;;26.40;53.40;;;;;;5032758;28;20033;-34
2022/08/25 08:49:59;;;;;;;2.72;2.30;;;26.40;53.30;;;;;;5032750;28;20111;-34
2022/08/25 08:52:48;;;;;;;2.42;1.85;;;26.50;53.20;;;;;;5033481;28;20041;-34
2022/08/25 08:55:34;;;;;;;2.97;1.88;;;26.60;53.20;;;;;;5023444;28;20041;-35
2022/08/25 08:58:05;;;;;;;4.30;1.95;;;26.70;53.10;;;;;;5032816;28;20038;-37
2022/08/25 09:00:36;;;;;;;4.53;2.20;;;26.80;53.10;;;;;;5033021;28;20485;-34
2022/08/25 09:03:09;;;;;;;4.55;2.40;;;26.90;52.90;;;;;;5031757;28;20493;-35
2022/08/25 09:05:49;;;;;;;3.10;2.17;;;27.00;52.60;;;;;;5031292;28;20060;-34
2022/08/25 09:08:16;;;;;;;3.97;2.13;;;27.10;52.50;;;;;;5032572;28;20037;-35
2022/08/25 09:10:54;;;;;;;4.50;2.15;;;27.20;52.90;;;;;;5032536;28;20109;-35
2022/08/25 09:13:28;;;;;;;5.22;2.30;;;27.30;52.00;;;;;;5032755;28;20099;-35
2022/08/25 09:19:24;;;;;;;3.17;2.33;;;27.50;51.50;;;;;;5032455;28;20044;-35
2022/08/25 09:22:16;;;;;;;3.67;2.28;;;27.60;51.20;;;;;;5032551;28;20100;-35
2022/08/25 09:25:01;;;;;;;4.55;2.20;;;27.70;51.20;;;;;;5032770;28;20034;-35
2022/08/25 09:27:54;;;;;;;3.53;2.15;;;27.80;51.10;;;;;;5032601;28;20381;-35
2022/08/25 09:30:21;;;;;;;3.17;2.45;;;27.80;51.00;;;;;;5031444;28;20033;-35
2022/08/25 09:32:52;;;;;;;2.83;2.50;;;28.00;51.00;;;;;;5032507;28;20035;-36
2022/08/25 09:35:30;;;;;;;2.78;2.00;;;28.00;50.80;;;;;;5032758;28;20029;-36
2022/08/25 09:38:02;;;;;;;2.58;2.25;;;28.10;50.80;;;;;;5032684;28;20033;-36
2022/08/25 09:40:33;;;;;;;2.53;2.10;;;28.20;50.50;;;;;;5032492;28;20033;-35
2022/08/25 09:43:01;;;;;;;4.22;2.20;;;28.30;50.30;;;;;;5032466;28;20432;-36
2022/08/25 09:45:35;;;;;;;3.58;2.22;;;28.40;50.20;;;;;;5032362;28;20036;-35
2022/08/25 09:48:01;;;;;;;4.38;2.17;;;28.50;49.90;;;;;;5033104;28;20489;-36
2022/08/25 09:50:31;;;;;;;2.85;1.98;;;28.60;49.70;;;;;;5036580;28;20032;-36
2022/08/25 09:53:12;;;;;;;5.43;2.25;;;28.70;49.40;;;;;;5036590;28;20481;-41
2022/08/25 09:55:41;;;;;;;2.20;2.00;;;28.80;49.30;;;;;;5036210;28;20439;-35
2022/08/25 09:58:17;;;;;;;5.25;2.30;;;28.80;49.00;;;;;;5035257;28;20087;-34
2022/08/25 10:00:43;;;;;;;3.20;2.25;;;28.90;48.80;;;;;;5035991;28;20100;-35
2022/08/25 10:03:10;;;;;;;3.17;2.05;;;28.90;48.60;;;;;;5034744;28;20025;-35
2022/08/25 10:05:54;;;;;;;3.58;2.10;;;29.00;48.50;;;;;;5035896;28;20056;-36
2022/08/25 10:08:31;;;;;;;3.20;2.03;;;29.10;48.50;;;;;;5034208;28;20053;-35
2022/08/25 10:10:59;;;;;;;2.13;1.77;;;29.10;48.20;;;;;;5036262;28;20022;-37
2022/08/25 10:13:47;;;;;;;5.07;1.95;;;29.20;48.20;;;;;;5036028;28;20029;-36
2022/08/25 10:16:25;;;;;;;2.63;2.03;;;29.30;48.10;;;;;;5036049;28;20021;-36
2022/08/25 10:19:10;;;;;;;3.28;2.00;;;29.40;47.70;;;;;;5035824;28;20425;-36
2022/08/25 10:21:39;;;;;;;2.72;1.85;;;29.40;47.30;;;;;;5035903;28;20029;-36
2022/08/25 10:24:06;;;;;;;3.08;1.90;;;29.40;47.70;;;;;;5035858;28;20013;-37
2022/08/25 10:26:54;;;;;;;2.33;1.70;;;29.50;47.00;;;;;;5035833;28;20053;-38
2022/08/25 10:29:44;;;;;;;3.78;2.38;;;29.60;46.90;;;;;;5035692;28;20029;-36
2022/08/25 10:32:30;;;;;;;2.88;2.00;;;29.60;46.70;;;;;;5035795;28;20021;-36
2022/08/25 10:34:58;;;;;;;3.28;1.95;;;29.70;46.30;;;;;;5035563;28;20105;-36
2022/08/25 10:37:41;;;;;;;4.45;2.20;;;29.80;46.20;;;;;;5034152;28;20021;-33
2022/08/25 10:40:36;;;;;;;2.92;1.90;;;29.90;46.00;;;;;;5034035;28;20033;-35
2022/08/25 10:43:19;;;;;;;3.25;2.30;;;30.00;45.80;;;;;;5034265;28;20026;-35
2022/08/25 10:45:56;;;;;;;2.50;1.88;;;30.10;45.80;;;;;;5035264;28;20021;-35
2022/08/25 10:48:30;;;;;;;3.00;2.00;;;30.10;45.50;;;;;;5035097;28;20041;-35
2022/08/25 10:51:21;;;;;;;3.03;2.10;;;30.20;45.40;;;;;;5035510;28;20033;-35
2022/08/25 10:54:01;;;;;;;2.78;1.95;;;30.20;45.00;;;;;;5035226;28;20025;-34
2022/08/25 10:56:30;;;;;;;2.47;1.75;;;30.40;44.80;;;;;;5033961;28;20021;-35
2022/08/25 10:59:19;;;;;;;2.60;1.95;;;30.40;44.60;;;;;;5034561;28;20101;-35
2022/08/25 11:02:03;;;;;;;1.95;1.60;;;30.50;44.50;;;;;;5034969;28;20030;-35
2022/08/25 11:04:47;;;;;;;2.38;1.95;;;30.50;44.50;;;;;;5034874;28;20026;-34
2022/08/25 11:07:35;;;;;;;2.75;1.80;;;30.60;44.10;;;;;;5033688;28;20057;-35
2022/08/25 11:10:26;;;;;;;5.05;1.90;;;30.70;44.50;;;;;;5034740;28;20207;-34
2022/08/25 11:12:55;;;;;;;3.65;1.98;;;30.80;43.60;;;;;;5024364;28;20065;-34
2022/08/25 11:15:32;;;;;;;2.15;1.70;;;30.90;43.30;;;;;;5034771;28;20028;-35
2022/08/25 11:18:05;;;;;;;2.42;1.73;;;30.90;43.00;;;;;;5035220;28;20029;-35
2022/08/25 11:20:40;;;;;;;2.33;1.83;;;31.00;42.90;;;;;;5033959;28;20029;-34
2022/08/25 11:23:23;;;;;;;2.25;1.65;;;31.10;42.80;;;;;;5034671;28;20029;-35
2022/08/25 11:25:58;;;;;;;3.45;1.75;;;31.10;42.30;;;;;;5034800;28;20052;-35
2022/08/25 11:28:38;;;;;;;2.47;1.67;;;31.30;41.90;;;;;;5034387;28;20024;-35
2022/08/25 11:31:05;;;;;;;4.30;1.50;;;31.30;41.70;;;;;;5034448;28;20121;-36
2022/08/25 11:33:32;;;;;;;1.60;1.50;;;31.30;41.50;;;;;;5034361;28;20067;-35
2022/08/25 11:36:29;;;;;;;2.47;1.55;;;31.30;41.10;;;;;;5034573;28;20385;-35
2022/08/25 11:39:20;;;;;;;2.25;1.67;;;31.40;41.00;;;;;;5034289;28;20043;-35
2022/08/25 11:42:03;;;;;;;3.03;1.42;;;31.40;41.30;;;;;;5034288;28;20079;-35
2022/08/25 11:45:06;;;;;;;2.88;1.83;;;31.50;40.70;;;;;;5034038;28;20041;-34
2022/08/25 11:47:59;;;;;;;3.42;1.52;;;31.50;40.50;;;;;;5033890;28;20029;-36
2022/08/25 11:50:25;;;;;;;;;;;31.60;40.50;;;;;;5033123;28;20045;-35
2022/08/25 11:52:55;;;;;;;1.63;1.48;;;31.60;40.60;;;;;;5034410;28;19905;-35
2022/08/25 11:55:45;;;;;;;3.28;1.60;;;31.60;40.30;;;;;;5033526;28;20025;-36
2022/08/25 11:58:30;;;;;;;2.45;1.58;;;31.80;40.20;;;;;;5034640;28;20033;-35
2022/08/25 12:01:01;;;;;;;2.47;1.60;;;31.90;40.20;;;;;;5034596;28;20083;-35
2022/08/25 12:03:35;;;;;;;2.25;1.50;;;32.10;39.90;;;;;;5034518;28;20048;-35
2022/08/25 12:06:24;;;;;;;2.40;1.60;;;32.20;39.60;;;;;;5034275;28;20025;-35
2022/08/25 12:08:50;;;;;;;1.92;1.70;;;32.30;39.50;;;;;;5034188;28;20042;-35
2022/08/25 12:11:41;;;;;;;2.33;1.45;;;32.40;39.50;;;;;;5033267;28;20072;-36
2022/08/25 12:14:35;;;;;;;2.22;1.70;;;32.50;39.10;;;;;;5033935;28;20099;-35
2022/08/25 12:17:06;;;;;;;2.45;1.65;;;32.60;39.00;;;;;;5034235;28;20029;-36
2022/08/25 12:19:34;;;;;;;1.67;1.40;;;32.70;38.90;;;;;;5033845;28;20480;-35
2022/08/25 12:22:00;;;;;;;2.25;1.27;;;32.80;38.60;;;;;;5032596;28;20029;-36
2022/08/25 12:24:41;;;;;;;3.47;1.58;;;32.90;38.50;;;;;;5032499;28;20025;-35
2022/08/25 12:27:09;;;;;;;1.40;1.30;;;32.90;38.40;;;;;;5033913;28;20052;-35
2022/08/25 12:29:47;;;;;;;3.05;1.42;;;33.00;38.30;;;;;;5033508;28;20025;-34
2022/08/25 12:32:30;;;;;;;3.03;1.60;;;33.20;38.20;;;;;;5034364;28;20021;-35
2022/08/25 12:35:27;;;;;;;3.17;1.40;;;33.30;38.20;;;;;;5033728;28;20489;-36
2022/08/25 12:38:14;;;;;;;1.92;1.40;;;33.40;37.80;;;;;;5033716;28;20033;-36
2022/08/25 12:40:43;;;;;;;2.60;1.55;;;33.40;37.80;;;;;;5033589;28;20108;-35
2022/08/25 12:43:35;;;;;;;2.92;1.70;;;33.50;37.70;;;;;;5033595;28;20513;-36
2022/08/25 12:46:26;;;;;;;1.75;1.60;;;33.60;37.80;;;;;;5033541;28;20029;-35
2022/08/25 12:48:59;;;;;;;3.83;1.75;;;33.60;37.70;;;;;;5025770;28;20064;-36
2022/08/25 12:51:39;;;;;;;4.63;1.60;;;33.70;37.70;;;;;;5033592;28;20063;-35
2022/08/25 12:54:35;;;;;;;1.63;1.52;;;33.90;37.60;;;;;;5033293;28;20033;-41
2022/08/25 12:57:32;;;;;;;2.42;1.60;;;33.90;37.40;;;;;;5033168;28;20068;-44
2022/08/25 13:00:02;;;;;;;1.90;1.65;;;34.00;37.30;;;;;;5033142;28;20109;-41
2022/08/25 13:02:37;;;;;;;3.97;1.52;;;34.00;37.20;;;;;;5033024;28;20022;-38
2022/08/25 13:05:08;;;;;;;2.63;1.70;;;34.00;37.10;;;;;;5033304;28;20032;-36
2022/08/25 13:08:02;;;;;;;1.70;1.60;;;34.00;36.90;;;;;;5033135;28;20050;-36
2022/08/25 13:10:49;;;;;;;1.65;1.30;;;34.00;36.80;;;;;;5033016;28;20030;-36
2022/08/25 13:13:51;;;;;;;3.28;1.60;;;33.90;37.00;;;;;;5033251;28;20093;-35
2022/08/25 13:16:26;;;;;;;1.95;1.50;;;33.80;37.00;;;;;;5033240;28;20432;-36
2022/08/25 13:18:56;;;;;;;2.63;1.42;;;33.70;37.10;;;;;;5033142;28;20103;-36